Time;durP1;ratioP1;P1;durP2;ratioP2;P2;SDS_P1;SDS_P2;PMS_P1;PMS_P2;Temp;Humidity;BMP_temperature;BMP_pressure;BME280_temperature;BME280_humidity;BME280_pressure;Samples;Min_cycle;Max_cycle;Signal;HPM_P1;HPM_P2
2022/03/12 00:01:01;;;;;;;84.25;33.60;;;;;;;-2.29;51.50;102796.75;5006203;28;20045;-60
2022/03/12 00:03:32;;;;;;;115.68;40.33;;;;;;;-2.31;51.29;102793.19;5006299;28;20526;-60
2022/03/12 00:06:00;;;;;;;99.32;34.33;;;;;;;-2.32;51.56;102791.44;5006339;28;20061;-60
2022/03/12 00:08:40;;;;;;;101.45;36.13;;;;;;;-2.34;52.09;102792.97;5004732;28;20140;-60
2022/03/12 00:11:08;;;;;;;64.05;26.80;;;;;;;-2.35;52.26;102796.28;5005698;28;20050;-59
2022/03/12 00:13:35;;;;;;;72.45;25.25;;;;;;;-2.37;52.17;102795.28;5005276;28;20427;-60
2022/03/12 00:16:01;;;;;;;50.38;20.63;;;;;;;-2.39;51.83;102794.28;5005428;28;20417;-60
2022/03/12 00:18:30;;;;;;;50.65;20.65;;;;;;;-2.43;52.68;102793.16;5006157;28;20058;-60
2022/03/12 00:21:01;;;;;;;53.05;22.13;;;;;;;-2.46;53.13;102792.03;5007272;28;20273;-60
2022/03/12 00:23:29;;;;;;;80.55;31.75;;;;;;;-2.50;54.76;102795.09;5004273;28;20058;-60
2022/03/12 00:25:55;;;;;;;108.50;37.40;;;;;;;-2.55;55.41;102793.09;5010191;28;20116;-60
2022/03/12 00:28:23;;;;;;;68.28;26.77;;;;;;;-2.61;55.14;102782.44;5004757;28;20076;-60
2022/03/12 00:30:50;;;;;;;84.28;29.73;;;;;;;-2.63;54.64;102781.44;5005197;28;20091;-61
2022/03/12 00:33:18;;;;;;;69.05;25.33;;;;;;;-2.63;54.26;102781.44;5003936;28;20140;-60
2022/03/12 00:35:47;;;;;;;49.13;21.02;;;;;;;-2.63;54.24;102781.44;5002547;28;20090;-60
2022/03/12 00:38:14;;;;;;;41.92;16.77;;;;;;;-2.65;53.75;102772.81;5002805;28;20475;-60
2022/03/12 00:40:40;;;;;;;35.90;16.35;;;;;;;-2.66;53.25;102773.59;5004040;28;20141;-60
2022/03/12 00:43:09;;;;;;;39.70;14.40;;;;;;;-2.64;53.16;102776.25;5005903;28;20908;-60
2022/03/12 00:45:37;;;;;;;37.15;15.00;;;;;;;-2.65;52.84;102764.31;5007518;28;20058;-60
2022/03/12 00:48:03;;;;;;;32.33;14.15;;;;;;;-2.65;52.57;102772.81;5005537;28;20061;-60
2022/03/12 00:50:30;;;;;;;36.13;15.25;;;;;;;-2.64;52.20;102763.53;5007719;28;20054;-60
2022/03/12 00:52:56;;;;;;;35.88;14.35;;;;;;;-2.63;52.26;102768.75;5006134;28;20506;-60
2022/03/12 00:55:23;;;;;;;45.67;19.73;;;;;;;-2.63;51.91;102758.59;5002965;28;20055;-60
2022/03/12 00:57:49;;;;;;;52.15;20.85;;;;;;;-2.64;52.51;102771.16;4996538;28;20045;-60
2022/03/12 01:00:18;;;;;;;85.28;28.58;;;;;;;-2.66;52.51;102768.50;5005671;28;20050;-60
2022/03/12 01:02:47;;;;;;;80.22;26.70;;;;;;;-2.66;52.82;102763.44;5003531;28;20133;-60
2022/03/12 01:05:15;;;;;;;66.50;24.77;;;;;;;-2.65;52.42;102764.31;5003221;28;20069;-60
2022/03/12 01:07:42;;;;;;;87.38;27.08;;;;;;;-2.67;52.85;102766.72;4999913;28;20049;-59
2022/03/12 01:10:09;;;;;;;72.43;26.20;;;;;;;-2.66;52.58;102763.44;5006529;28;20049;-60
2022/03/12 01:12:36;;;;;;;64.18;22.55;;;;;;;-2.66;52.32;102763.44;5004658;28;20064;-60
2022/03/12 01:15:03;;;;;;;58.80;21.45;;;;;;;-2.67;52.34;102769.28;5008317;28;20499;-59
2022/03/12 01:17:31;;;;;;;52.97;20.73;;;;;;;-2.67;51.85;102766.72;5002903;28;20548;-59
2022/03/12 01:20:00;;;;;;;58.00;21.00;;;;;;;-2.67;52.08;102764.19;4999825;28;20087;-60
2022/03/12 01:22:29;;;;;;;47.83;19.80;;;;;;;-2.68;51.92;102764.97;5004762;28;20046;-60
2022/03/12 01:24:56;;;;;;;56.90;21.17;;;;;;;-2.70;51.82;102761.41;5007518;28;20076;-59
2022/03/12 01:27:22;;;;;;;55.45;19.88;;;;;;;-2.72;52.33;102757.88;5002990;28;20057;-60
2022/03/12 01:29:49;;;;;;;48.55;18.35;;;;;;;-2.76;52.50;102760.94;5007241;28;20066;-60
2022/03/12 01:32:15;;;;;;;48.08;20.25;;;;;;;-2.78;52.84;102765.03;4999997;28;20065;-59
2022/03/12 01:34:42;;;;;;;55.28;19.35;;;;;;;-2.78;53.02;102766.69;4998679;28;20050;-60
2022/03/12 01:37:10;;;;;;;46.58;19.20;;;;;;;-2.81;52.92;102762.25;5000973;28;20093;-59
2022/03/12 01:39:36;;;;;;;43.80;18.20;;;;;;;-2.81;53.19;102764.78;5008031;28;20413;-60
2022/03/12 01:42:07;;;;;;;44.72;16.50;;;;;;;-2.84;53.68;102764.56;5002972;28;20061;-60
2022/03/12 01:44:34;;;;;;;44.30;17.23;;;;;;;-2.85;53.19;102760.25;5005488;28;20046;-60
2022/03/12 01:47:06;;;;;;;45.72;16.25;;;;;;;-2.88;53.87;102760.00;5003730;28;20043;-60
2022/03/12 01:49:32;;;;;;;39.63;16.55;;;;;;;-2.94;54.62;102755.34;5002640;28;20056;-60
2022/03/12 01:51:59;;;;;;;37.28;16.60;;;;;;;-2.98;54.86;102762.59;4997276;28;20188;-60
2022/03/12 01:54:29;;;;;;;50.67;18.98;;;;;;;-3.03;55.21;102754.63;4998288;28;20050;-60
2022/03/12 01:56:57;;;;;;;46.60;16.95;;;;;;;-3.05;54.91;102755.28;5007101;28;20062;-60
2022/03/12 01:59:25;;;;;;;46.65;17.35;;;;;;;-3.06;54.68;102764.53;5004168;28;20637;-60
2022/03/12 02:01:52;;;;;;;42.03;16.70;;;;;;;-3.08;54.58;102755.91;5005135;28;20446;-59
2022/03/12 02:04:20;;;;;;;44.70;16.27;;;;;;;-3.13;54.58;102751.22;5004535;28;20108;-60
2022/03/12 02:06:47;;;;;;;47.58;15.05;;;;;;;-3.15;54.07;102747.66;5001682;28;20136;-60
2022/03/12 02:09:15;;;;;;;36.58;14.98;;;;;;;-3.15;54.08;102745.13;5005738;28;20065;-59
2022/03/12 02:11:48;;;;;;;34.13;14.43;;;;;;;-3.15;53.84;102737.53;5002741;28;20049;-59
2022/03/12 02:14:17;;;;;;;35.72;13.77;;;;;;;-3.17;53.65;102734.88;5005345;28;20049;-60
2022/03/12 02:16:45;;;;;;;31.17;13.82;;;;;;;-3.15;53.65;102732.44;5000419;28;20066;-60
2022/03/12 02:19:12;;;;;;;32.20;13.10;;;;;;;-3.17;53.68;102725.59;5002887;28;20518;-59
2022/03/12 02:21:43;;;;;;;34.60;14.45;;;;;;;-3.17;53.25;102723.06;5000691;28;20042;-60
2022/03/12 02:24:13;;;;;;;38.40;14.95;;;;;;;-3.22;53.58;102724.34;5001309;28;20616;-60
2022/03/12 02:26:42;;;;;;;33.53;15.50;;;;;;;-3.22;53.73;102724.34;5004947;28;20060;-59
2022/03/12 02:29:12;;;;;;;36.05;14.88;;;;;;;-3.24;53.79;102719.94;5008237;28;20080;-60
2022/03/12 02:31:40;;;;;;;37.67;15.60;;;;;;;-3.26;53.78;102719.81;4999410;28;20130;-60
2022/03/12 02:34:09;;;;;;;35.92;16.48;;;;;;;-3.28;53.89;102716.28;5001369;28;20042;-60
2022/03/12 02:36:35;;;;;;;37.20;15.73;;;;;;;-3.28;53.85;102716.28;5003673;28;20052;-60
2022/03/12 02:39:03;;;;;;;40.65;15.50;;;;;;;-3.29;54.14;102713.63;5006721;28;20049;-60
2022/03/12 02:41:31;;;;;;;41.83;16.02;;;;;;;-3.31;54.24;102710.97;5005274;28;20517;-59
2022/03/12 02:43:58;;;;;;;33.33;15.52;;;;;;;-3.33;54.28;102711.59;5004976;28;20058;-60
2022/03/12 02:46:30;;;;;;;36.40;16.23;;;;;;;-3.34;54.48;102715.78;5001491;28;20068;-60
2022/03/12 02:48:56;;;;;;;32.72;14.45;;;;;;;-3.35;54.63;102714.03;5001505;28;20041;-59
2022/03/12 02:51:25;;;;;;;36.58;16.58;;;;;;;-3.35;54.55;102711.47;5001284;28;20058;-59
2022/03/12 02:53:56;;;;;;;31.25;14.15;;;;;;;-3.34;54.01;102710.72;5004780;28;20054;-59
2022/03/12 02:56:23;;;;;;;35.92;15.38;;;;;;;-3.36;53.97;102712.25;4999856;28;20070;-60
2022/03/12 02:58:51;;;;;;;31.70;16.17;;;;;;;-3.38;54.04;102712.91;4999157;28;20069;-59
2022/03/12 03:01:17;;;;;;;41.78;15.13;;;;;;;-3.40;54.18;102710.25;4997477;28;20057;-59
2022/03/12 03:03:45;;;;;;;39.30;15.77;;;;;;;-3.42;54.09;102709.22;5005285;28;20132;-60
2022/03/12 03:06:14;;;;;;;35.90;15.60;;;;;;;-3.46;54.89;102709.75;5005687;28;20383;-59
2022/03/12 03:08:42;;;;;;;35.33;16.45;;;;;;;-3.45;55.33;102711.53;5005983;28;20069;-59
2022/03/12 03:11:13;;;;;;;41.10;16.48;;;;;;;-3.48;54.78;102723.06;4997370;28;20061;-60
2022/03/12 03:13:44;;;;;;;33.75;15.60;;;;;;;-3.48;54.66;102721.44;5000212;28;20046;-59
2022/03/12 03:16:21;;;;;;;38.58;15.73;;;;;;;-3.49;54.78;102722.19;5004338;28;20053;-60
2022/03/12 03:18:51;;;;;;;36.78;16.17;;;;;;;-3.51;54.80;102721.19;5002398;28;20046;-60
2022/03/12 03:21:18;;;;;;;35.30;16.35;;;;;;;-3.55;55.03;102714.09;5001911;28;20427;-59
2022/03/12 03:23:45;;;;;;;39.13;15.88;;;;;;;-3.59;55.37;102717.16;5001898;28;20142;-60
2022/03/12 03:26:13;;;;;;;35.95;15.43;;;;;;;-3.62;55.33;102714.38;5006404;28;20061;-60
2022/03/12 03:28:40;;;;;;;49.30;18.80;;;;;;;-3.65;55.80;102719.16;5005368;28;20049;-59
2022/03/12 03:31:07;;;;;;;71.65;28.85;;;;;;;-3.66;56.09;102719.94;5000512;28;20388;-60
2022/03/12 03:33:35;;;;;;;146.30;54.42;;;;;;;-3.70;56.31;102710.31;5004614;28;21689;-59
2022/03/12 03:36:02;;;;;;;88.45;35.35;;;;;;;-3.74;56.68;102710.81;5002351;28;20050;-59
2022/03/12 03:38:28;;;;;;;153.25;57.33;;;;;;;-3.79;57.35;102712.09;5004807;28;20050;-59
2022/03/12 03:40:55;;;;;;;239.77;86.85;;;;;;;-3.87;57.72;102709.84;5006733;28;20054;-59
2022/03/12 03:43:23;;;;;;;148.15;55.88;;;;;;;-3.91;57.94;102712.88;5004858;28;20061;-59
2022/03/12 03:45:51;;;;;;;107.38;40.22;;;;;;;-3.93;57.96;102709.34;5007621;28;20444;-59
2022/03/12 03:48:20;;;;;;;77.57;30.23;;;;;;;-3.93;58.08;102713.53;5006747;28;20053;-59
2022/03/12 03:50:50;;;;;;;113.32;46.50;;;;;;;-3.95;58.07;102705.81;5001052;28;20714;-59
2022/03/12 03:53:18;;;;;;;64.25;28.98;;;;;;;-3.95;58.03;102707.44;5006363;28;20034;-59
2022/03/12 03:55:45;;;;;;;35.80;16.77;;;;;;;-3.96;58.13;102711.63;4999359;28;20049;-60
2022/03/12 03:58:13;;;;;;;39.78;18.67;;;;;;;-3.98;58.37;102708.09;5009248;28;20061;-59
2022/03/12 04:00:40;;;;;;;38.25;16.17;;;;;;;-3.99;58.24;102711.38;5004083;28;20050;-59
2022/03/12 04:03:07;;;;;;;38.38;15.57;;;;;;;-3.98;58.42;102710.63;5006976;28;20529;-59
2022/03/12 04:05:36;;;;;;;34.83;15.88;;;;;;;-3.99;58.25;102703.78;5002058;28;20061;-59
2022/03/12 04:08:07;;;;;;;49.55;17.77;;;;;;;-4.00;58.25;102701.13;5009891;28;20058;-59
2022/03/12 04:10:35;;;;;;;35.67;17.50;;;;;;;-4.03;58.36;102704.31;5008448;28;20053;-60
2022/03/12 04:13:03;;;;;;;40.78;16.02;;;;;;;-4.05;58.37;102705.81;5001820;28;20136;-59
2022/03/12 04:15:30;;;;;;;40.92;18.10;;;;;;;-4.06;58.52;102701.53;5003120;28;20819;-59
2022/03/12 04:17:57;;;;;;;41.80;17.75;;;;;;;-4.07;58.36;102704.81;5003176;28;20052;-59
2022/03/12 04:20:24;;;;;;;34.95;16.20;;;;;;;-4.08;58.44;102703.03;5007814;28;20529;-59
2022/03/12 04:22:52;;;;;;;39.75;18.60;;;;;;;-4.09;58.58;102702.91;5007927;28;20505;-59
2022/03/12 04:25:20;;;;;;;42.53;17.52;;;;;;;-4.10;58.40;102702.03;5009542;28;20053;-59
2022/03/12 04:27:47;;;;;;;34.85;17.60;;;;;;;-4.11;58.79;102702.78;5007891;28;20123;-59
2022/03/12 04:30:14;;;;;;;39.58;17.98;;;;;;;-4.13;58.91;102699.25;5008110;28;20049;-59
2022/03/12 04:32:42;;;;;;;41.03;17.73;;;;;;;-4.15;58.87;102701.66;5006341;28;20467;-58
2022/03/12 04:35:10;;;;;;;38.88;18.48;;;;;;;-4.20;59.06;102702.00;4996121;28;20449;-59
2022/03/12 04:37:37;;;;;;;42.38;17.77;;;;;;;-4.23;59.15;102700.13;5002644;28;20081;-59
2022/03/12 04:40:07;;;;;;;44.25;17.42;;;;;;;-4.24;59.03;102694.91;5004102;28;20058;-59
2022/03/12 04:42:38;;;;;;;45.50;17.73;;;;;;;-4.24;59.55;102700.88;5006024;28;20048;-58
2022/03/12 04:45:05;;;;;;;40.42;19.08;;;;;;;-4.24;59.40;102697.44;5006842;28;20045;-59
2022/03/12 04:47:32;;;;;;;44.38;18.88;;;;;;;-4.22;59.46;102698.47;5002568;28;20506;-59
2022/03/12 04:49:58;;;;;;;44.10;21.25;;;;;;;-4.23;59.44;102696.69;4999971;28;20047;-59
2022/03/12 04:52:25;;;;;;;48.05;19.70;;;;;;;-4.23;59.50;102694.16;5001186;28;20056;-59
2022/03/12 04:54:51;;;;;;;42.45;19.58;;;;;;;-4.24;59.54;102700.00;5000739;28;20042;-59
2022/03/12 04:57:18;;;;;;;41.25;17.70;;;;;;;-4.25;59.69;102693.16;5003948;28;20047;-61
2022/03/12 04:59:46;;;;;;;54.85;21.25;;;;;;;-4.26;59.69;102691.38;5007466;28;20050;-58
2022/03/12 05:02:13;;;;;;;40.35;18.38;;;;;;;-4.28;59.92;102692.91;5008239;28;20050;-60
2022/03/12 05:04:39;;;;;;;37.03;17.90;;;;;;;-4.28;60.00;102697.97;5000692;28;20043;-60
2022/03/12 05:07:08;;;;;;;42.17;18.65;;;;;;;-4.28;60.13;102692.91;5003963;28;20053;-60
2022/03/12 05:09:34;;;;;;;41.88;19.48;;;;;;;-4.28;60.12;102697.97;5003859;28;20096;-60
2022/03/12 05:12:05;;;;;;;45.80;19.92;;;;;;;-4.29;60.24;102696.19;5006352;28;20049;-60
2022/03/12 05:14:34;;;;;;;39.30;18.58;;;;;;;-4.30;60.58;102700.38;5005497;28;20054;-60
2022/03/12 05:17:04;;;;;;;46.15;22.10;;;;;;;-4.31;60.72;102698.59;5005869;28;20054;-60
2022/03/12 05:19:31;;;;;;;53.85;20.08;;;;;;;-4.31;60.86;102712.91;5001131;28;20066;-60
2022/03/12 05:21:57;;;;;;;48.92;21.65;;;;;;;-4.29;60.70;102711.38;5002087;28;20049;-61
2022/03/12 05:24:24;;;;;;;53.42;21.98;;;;;;;-4.30;61.01;102719.75;5007429;28;20431;-60
2022/03/12 05:26:51;;;;;;;50.65;22.13;;;;;;;-4.33;60.76;102710.25;5005882;28;20060;-59
2022/03/12 05:29:18;;;;;;;43.75;19.38;;;;;;;-4.33;60.76;102716.94;5005849;28;20058;-60
2022/03/12 05:31:44;;;;;;;41.30;18.67;;;;;;;-4.32;60.75;102716.19;5007680;28;20058;-60
2022/03/12 05:34:12;;;;;;;51.13;19.02;;;;;;;-4.31;60.58;102723.03;5001655;28;20054;-60
2022/03/12 05:36:38;;;;;;;46.28;19.67;;;;;;;-4.31;60.96;102728.97;5000608;28;20048;-60
2022/03/12 05:39:05;;;;;;;48.65;20.00;;;;;;;-4.30;60.88;102724.81;4997335;28;20070;-60
2022/03/12 05:41:35;;;;;;;52.33;20.35;;;;;;;-4.29;60.78;102722.41;5006182;28;20049;-60
2022/03/12 05:44:03;;;;;;;48.10;20.90;;;;;;;-4.27;60.88;102715.81;5006387;28;20442;-61
2022/03/12 05:46:30;;;;;;;46.22;19.83;;;;;;;-4.24;60.67;102712.66;5003990;28;20062;-60
2022/03/12 05:48:57;;;;;;;49.78;21.10;;;;;;;-4.20;60.63;102714.66;5004726;28;20046;-60
2022/03/12 05:51:25;;;;;;;47.58;21.20;;;;;;;-4.16;60.69;102719.25;5006373;28;20053;-60
2022/03/12 05:53:51;;;;;;;42.60;18.45;;;;;;;-4.10;60.22;102709.63;5006735;28;20470;-60
2022/03/12 05:56:17;;;;;;;42.65;19.27;;;;;;;-4.04;60.59;102710.13;5004919;28;20053;-60
2022/03/12 05:58:45;;;;;;;39.67;18.75;;;;;;;-3.98;60.18;102715.69;5003727;28;20486;-60
2022/03/12 06:01:11;;;;;;;42.13;16.80;;;;;;;-3.90;60.25;102709.59;5007356;28;20570;-60
2022/03/12 06:03:38;;;;;;;38.25;18.08;;;;;;;-3.78;59.87;102718.94;5003495;28;20042;-60
2022/03/12 06:06:04;;;;;;;37.97;17.20;;;;;;;-3.69;60.29;102714.63;5004653;28;20088;-60
2022/03/12 06:08:33;;;;;;;40.53;18.50;;;;;;;-3.58;60.35;102708.78;5006428;28;20529;-61
2022/03/12 06:11:00;;;;;;;46.15;19.42;;;;;;;-3.44;60.39;102713.28;5005167;28;20153;-60
2022/03/12 06:13:29;;;;;;;42.80;18.67;;;;;;;-3.29;59.97;102718.69;4999119;28;20050;-61
2022/03/12 06:15:58;;;;;;;39.63;17.60;;;;;;;-3.12;59.80;102713.31;4994258;28;20050;-60
2022/03/12 06:18:27;;;;;;;45.28;20.10;;;;;;;-2.92;59.09;102703.06;5001710;28;20156;-60
2022/03/12 06:20:53;;;;;;;48.75;22.45;;;;;;;-2.69;59.35;102696.31;5004430;28;20058;-60
2022/03/12 06:23:20;;;;;;;39.97;16.70;;;;;;;-2.39;58.62;102702.84;4994310;28;20046;-60
2022/03/12 06:25:48;;;;;;;44.53;19.90;;;;;;;-2.08;56.96;102696.75;4989910;28;20046;-60
2022/03/12 06:28:15;;;;;;;43.03;20.42;;;;;;;-1.76;55.06;102695.66;4987549;28;20396;-60
2022/03/12 06:30:42;;;;;;;43.35;19.23;;;;;;;-1.48;54.23;102679.06;4993440;28;20050;-60
2022/03/12 06:33:09;;;;;;;35.22;17.45;;;;;;;-1.23;52.72;102686.78;4990176;28;20129;-60
2022/03/12 06:35:35;;;;;;;45.85;19.25;;;;;;;-1.03;52.45;102675.47;5001972;28;20058;-61
2022/03/12 06:38:02;;;;;;;41.53;19.77;;;;;;;-0.84;52.05;102668.31;5003207;28;20057;-61
2022/03/12 06:40:29;;;;;;;46.60;21.13;;;;;;;-0.64;51.96;102673.06;4998663;28;20620;-61
2022/03/12 06:42:59;;;;;;;39.00;18.25;;;;;;;-0.42;50.79;102679.63;4996539;28;20046;-60
2022/03/12 06:45:26;;;;;;;42.83;20.70;;;;;;;-0.20;49.92;102672.63;5002822;28;20042;-59
2022/03/12 06:47:53;;;;;;;34.28;15.63;;;;;;;-0.04;50.16;102680.50;5003761;28;20053;-60
2022/03/12 06:50:22;;;;;;;32.25;15.25;;;;;;;0.18;49.61;102676.81;4989612;28;20054;-60
2022/03/12 06:52:50;;;;;;;35.22;16.40;;;;;;;0.44;48.81;102684.44;4998374;28;20049;-60
2022/03/12 06:55:18;;;;;;;34.95;15.13;;;;;;;0.69;48.43;102688.56;4988218;28;20050;-60
2022/03/12 06:57:47;;;;;;;30.23;16.00;;;;;;;0.91;47.64;102681.44;4992551;28;20104;-60
2022/03/12 07:00:17;;;;;;;38.78;16.48;;;;;;;1.10;47.74;102679.25;4999456;28;20498;-60
2022/03/12 07:02:44;;;;;;;40.70;18.63;;;;;;;1.33;48.51;102683.19;4992241;28;20050;-60
2022/03/12 07:05:12;;;;;;;42.05;18.92;;;;;;;1.53;48.13;102679.25;5001535;28;20045;-60
2022/03/12 07:07:38;;;;;;;37.08;16.20;;;;;;;1.74;48.15;102687.31;5000191;28;20057;-61
2022/03/12 07:10:06;;;;;;;32.58;17.17;;;;;;;1.95;47.76;102692.78;5007308;28;20046;-60
2022/03/12 07:12:33;;;;;;;27.38;15.00;;;;;;;2.13;47.29;102688.75;4989478;28;20058;-60
2022/03/12 07:15:00;;;;;;;28.83;15.15;;;;;;;2.31;47.08;102687.22;4997866;28;20088;-60
2022/03/12 07:17:28;;;;;;;33.47;17.08;;;;;;;2.49;46.75;102690.81;4991191;28;20065;-60
2022/03/12 07:19:54;;;;;;;30.70;15.63;;;;;;;2.64;45.86;102689.91;4997445;28;20449;-60
2022/03/12 07:22:21;;;;;;;30.42;15.52;;;;;;;2.78;45.33;102681.31;4988323;28;20498;-60
2022/03/12 07:24:47;;;;;;;33.10;16.02;;;;;;;2.90;45.46;102684.53;4987745;28;20054;-60
2022/03/12 07:27:14;;;;;;;33.47;17.48;;;;;;;3.02;44.30;102680.03;4989860;28;20054;-59
2022/03/12 07:29:41;;;;;;;38.03;18.38;;;;;;;3.10;44.31;102678.75;5007252;28;20054;-59
2022/03/12 07:32:08;;;;;;;35.55;17.33;;;;;;;3.27;44.62;102682.25;5000924;28;20515;-60
2022/03/12 07:34:36;;;;;;;32.97;17.77;;;;;;;3.45;44.37;102677.19;4992795;28;20498;-60
2022/03/12 07:37:02;;;;;;;30.20;16.13;;;;;;;3.58;43.68;102679.56;4998350;28;20406;-61
2022/03/12 07:39:29;;;;;;;38.53;17.13;;;;;;;3.78;43.71;102670.31;4997626;28;20052;-60
2022/03/12 07:41:55;;;;;;;32.58;15.48;;;;;;;3.94;42.28;102664.25;4999680;28;20050;-60
2022/03/12 07:44:23;;;;;;;32.58;15.38;;;;;;;4.10;41.64;102667.66;5000503;28;20042;-61
2022/03/12 07:46:49;;;;;;;27.50;13.98;;;;;;;4.25;41.47;102667.53;4997028;28;20052;-60
2022/03/12 07:49:16;;;;;;;24.10;12.48;;;;;;;4.51;40.59;102670.44;4997695;28;20046;-60
2022/03/12 07:51:44;;;;;;;22.90;12.25;;;;;;;4.77;40.95;102662.28;4997743;28;20053;-60
2022/03/12 07:54:12;;;;;;;23.00;12.50;;;;;;;5.04;38.61;102650.66;4988718;28;20165;-61
2022/03/12 07:56:39;;;;;;;24.45;12.35;;;;;;;5.32;38.06;102657.06;4986940;28;20133;-60
2022/03/12 07:59:06;;;;;;;28.67;14.50;;;;;;;5.56;38.12;102652.94;4988428;28;20050;-60
2022/03/12 08:01:33;;;;;;;30.50;15.95;;;;;;;5.77;36.75;102654.69;4993746;28;20046;-60
2022/03/12 08:04:01;;;;;;;26.30;13.25;;;;;;;5.97;37.27;102643.56;5004237;28;20041;-60
2022/03/12 08:06:28;;;;;;;27.10;13.45;;;;;;;6.17;36.93;102645.22;5004009;28;20140;-60
2022/03/12 08:08:56;;;;;;;66.55;32.33;;;;;;;6.41;36.81;102639.31;4996369;28;20490;-61
2022/03/12 08:11:28;;;;;;;28.80;15.55;;;;;;;6.59;36.46;102640.00;4993376;28;20435;-59
2022/03/12 08:13:56;;;;;;;21.52;11.45;;;;;;;6.83;34.32;102634.91;4993127;28;20054;-60
2022/03/12 08:16:24;;;;;;;21.02;12.02;;;;;;;7.03;32.22;102645.94;5002046;28;20125;-59
2022/03/12 08:18:50;;;;;;;20.83;10.43;;;;;;;7.26;31.92;102642.50;5003189;28;20052;-59
2022/03/12 08:21:17;;;;;;;29.20;18.33;;;;;;;7.45;30.93;102642.34;5001730;28;20542;-59
2022/03/12 08:23:45;;;;;;;22.40;11.00;;;;;;;7.68;31.20;102631.91;5002536;28;20042;-60
2022/03/12 08:26:13;;;;;;;23.95;13.30;;;;;;;7.93;30.52;102628.47;5011272;28;21318;-59
2022/03/12 08:28:40;;;;;;;18.60;11.90;;;;;;;8.06;29.31;102623.72;5001411;28;20062;-60
2022/03/12 08:31:07;;;;;;;16.10;9.25;;;;;;;8.22;29.31;102628.53;5000307;28;20058;-59
2022/03/12 08:33:34;;;;;;;26.63;12.95;;;;;;;8.41;29.17;102629.16;5009914;28;20639;-59
2022/03/12 08:36:03;;;;;;;19.92;11.95;;;;;;;8.60;27.51;102630.59;5008146;28;20402;-57
2022/03/12 08:38:29;;;;;;;20.27;12.30;;;;;;;8.90;27.95;102628.03;4994247;28;20539;-59
2022/03/12 08:40:56;;;;;;;21.05;13.60;;;;;;;9.14;27.25;102626.13;4997875;28;20056;-59
2022/03/12 08:43:23;;;;;;;14.70;9.05;;;;;;;9.36;26.02;102633.63;5000720;28;20514;-60
2022/03/12 08:45:50;;;;;;;24.45;16.00;;;;;;;9.50;26.04;102634.03;4992583;28;20054;-59
2022/03/12 08:48:17;;;;;;;23.42;16.08;;;;;;;9.52;25.62;102631.47;4992708;28;20582;-59
2022/03/12 08:50:44;;;;;;;14.95;8.68;;;;;;;9.61;24.94;102626.53;5005007;28;20057;-59
2022/03/12 08:53:11;;;;;;;23.75;14.82;;;;;;;9.76;25.60;102629.50;5007693;28;20081;-59
2022/03/12 08:55:38;;;;;;;18.73;12.57;;;;;;;9.85;24.61;102624.56;4991260;28;20384;-59
2022/03/12 08:58:04;;;;;;;14.70;7.97;;;;;;;9.97;24.51;102619.69;5001953;28;20058;-59
2022/03/12 09:00:32;;;;;;;17.58;10.73;;;;;;;10.06;24.74;102608.66;4990278;28;20046;-60
2022/03/12 09:02:58;;;;;;;12.70;7.60;;;;;;;10.10;23.73;102615.69;5009505;28;20050;-60
2022/03/12 09:05:25;;;;;;;19.88;12.05;;;;;;;10.15;23.51;102615.78;5005061;28;20050;-60
2022/03/12 09:07:52;;;;;;;15.52;9.85;;;;;;;10.18;23.61;102608.06;4999097;28;20042;-60
2022/03/12 09:10:20;;;;;;;13.43;8.05;;;;;;;10.06;23.12;102606.97;4992513;28;20046;-60
2022/03/12 09:12:47;;;;;;;14.77;7.72;;;;;;;10.04;23.05;102613.81;5000471;28;20061;-60
2022/03/12 09:15:14;;;;;;;20.55;9.82;;;;;;;10.19;23.37;102607.22;4993196;28;20049;-59
2022/03/12 09:17:42;;;;;;;17.02;10.75;;;;;;;10.24;23.54;102609.13;4996399;28;20188;-60
2022/03/12 09:20:09;;;;;;;12.55;7.50;;;;;;;10.23;23.06;102611.69;5000786;28;20355;-61
2022/03/12 09:22:36;;;;;;;13.00;7.53;;;;;;;10.27;23.00;102618.69;4999937;28;20427;-59
2022/03/12 09:25:03;;;;;;;13.75;6.93;;;;;;;10.24;23.54;102616.03;5009740;28;20083;-60
2022/03/12 09:27:30;;;;;;;15.77;7.90;;;;;;;10.23;22.92;102614.28;5001732;28;20054;-60
2022/03/12 09:29:56;;;;;;;16.95;8.32;;;;;;;10.23;23.01;102614.28;4998838;28;21255;-60
2022/03/12 09:32:23;;;;;;;16.70;8.75;;;;;;;10.26;22.93;102615.22;4993684;28;20686;-59
2022/03/12 09:34:51;;;;;;;15.40;7.60;;;;;;;10.15;22.73;102615.78;5002138;28;20048;-59
2022/03/12 09:37:17;;;;;;;18.92;13.40;;;;;;;10.12;22.64;102608.81;5007243;28;21441;-59
2022/03/12 09:39:45;;;;;;;15.18;8.60;;;;;;;10.17;22.32;102612.38;4990398;28;20060;-59
2022/03/12 09:42:11;;;;;;;18.50;9.52;;;;;;;10.23;23.17;102602.19;5008128;28;20533;-59
2022/03/12 09:44:38;;;;;;;13.80;8.02;;;;;;;10.22;22.17;102609.94;5009203;28;20265;-59
2022/03/12 09:47:05;;;;;;;16.65;8.55;;;;;;;10.26;22.59;102606.56;5002671;28;20057;-59
2022/03/12 09:49:33;;;;;;;15.75;8.63;;;;;;;10.30;23.03;102603.19;5000023;28;20042;-59
2022/03/12 09:52:01;;;;;;;12.75;7.55;;;;;;;10.33;22.64;102603.25;5007031;28;20084;-60
2022/03/12 09:54:30;;;;;;;11.93;7.43;;;;;;;10.36;22.15;102598.16;4989918;28;20054;-60
2022/03/12 09:56:57;;;;;;;15.18;7.35;;;;;;;10.38;21.67;102602.53;4990960;28;20053;-59
2022/03/12 09:59:23;;;;;;;14.27;7.00;;;;;;;10.45;21.98;102593.19;4995492;28;20042;-59
2022/03/12 10:01:50;;;;;;;14.18;7.22;;;;;;;10.55;22.20;102597.72;4989600;28;20490;-59
2022/03/12 10:04:16;;;;;;;12.20;6.55;;;;;;;10.64;22.45;102595.31;4999546;28;20049;-59
2022/03/12 10:06:44;;;;;;;15.52;7.10;;;;;;;10.70;22.05;102589.38;4989453;28;20487;-60
2022/03/12 10:09:13;;;;;;;15.00;7.32;;;;;;;10.77;22.00;102591.25;4992108;28;20054;-58
2022/03/12 10:11:41;;;;;;;16.55;7.90;;;;;;;10.79;20.93;102597.34;4991819;28;20100;-60
2022/03/12 10:14:08;;;;;;;13.95;8.05;;;;;;;10.85;22.03;102583.63;4999117;28;20085;-61
2022/03/12 10:16:35;;;;;;;15.05;8.65;;;;;;;10.85;22.43;102588.81;4992973;28;20058;-59
2022/03/12 10:19:02;;;;;;;15.82;8.75;;;;;;;10.88;22.12;102591.47;5000732;28;20058;-61
2022/03/12 10:21:30;;;;;;;19.08;9.65;;;;;;;10.81;22.09;102597.38;5007906;28;20411;-60
2022/03/12 10:23:56;;;;;;;14.77;8.25;;;;;;;10.78;21.61;102594.72;4998960;28;20083;-59
2022/03/12 10:26:24;;;;;;;17.80;9.40;;;;;;;10.80;22.29;102596.50;5000951;28;20514;-59
2022/03/12 10:28:51;;;;;;;14.93;7.60;;;;;;;10.81;21.95;102597.38;4989341;28;20050;-60
2022/03/12 10:31:19;;;;;;;15.57;7.95;;;;;;;10.82;22.03;102593.94;4998820;28;21165;-60
2022/03/12 10:33:46;;;;;;;17.55;8.80;;;;;;;10.85;21.73;102592.28;4998885;28;20100;-59
2022/03/12 10:36:14;;;;;;;16.38;8.60;;;;;;;10.80;22.56;102585.25;5004110;28;20049;-59
2022/03/12 10:38:42;;;;;;;14.25;7.57;;;;;;;10.78;22.71;102584.34;5005683;28;20049;-59
2022/03/12 10:41:09;;;;;;;15.05;7.20;;;;;;;10.84;22.16;102587.94;4996358;28;20046;-59
2022/03/12 10:43:46;;;;;;;12.00;7.60;;;;;;;10.86;21.35;102573.28;5001985;28;20054;-59
2022/03/12 10:46:20;;;;;;;13.15;7.45;;;;;;;10.84;22.43;102576.69;4997207;28;20510;-59
2022/03/12 10:48:48;;;;;;;14.60;7.75;;;;;;;10.81;22.13;102579.22;4999103;28;20069;-59
2022/03/12 10:51:17;;;;;;;11.80;6.38;;;;;;;10.78;22.63;102582.63;4998761;28;20498;-59
2022/03/12 10:53:45;;;;;;;12.27;7.70;;;;;;;10.70;22.41;102585.06;4992238;28;20046;-61
2022/03/12 10:56:12;;;;;;;14.68;7.35;;;;;;;10.78;22.53;102581.75;4999733;28;20046;-61
2022/03/12 10:58:38;;;;;;;11.45;6.78;;;;;;;10.80;22.47;102580.06;4991393;28;20045;-61
2022/03/12 11:01:06;;;;;;;14.32;7.13;;;;;;;10.68;22.00;102581.56;4994361;28;20065;-60
2022/03/12 11:03:35;;;;;;;15.35;7.25;;;;;;;10.54;21.84;102572.63;4991433;28;20042;-60
2022/03/12 11:06:02;;;;;;;13.10;6.82;;;;;;;10.49;21.15;102568.22;4987688;28;20046;-60
2022/03/12 11:08:29;;;;;;;12.30;6.63;;;;;;;10.37;21.74;102568.78;4998364;28;20054;-60
2022/03/12 11:10:59;;;;;;;13.00;7.00;;;;;;;10.32;22.40;102560.91;4996928;28;20079;-60
2022/03/12 11:13:34;;;;;;;11.73;6.57;;;;;;;10.32;21.87;102562.63;4989748;28;20053;-60